createdAt,value
2023-04-15T00:00:07.220Z,1009.15
2023-04-15T00:00:21.202Z,1009.14
2023-04-15T00:00:35.185Z,1009.14
2023-04-15T00:01:03.131Z,1009.14
2023-04-15T00:01:17.113Z,1009.14
2023-04-15T00:01:31.094Z,1009.13
2023-04-15T00:01:45.149Z,1009.13
2023-04-15T00:02:13.235Z,1009.13
2023-04-15T00:02:27.485Z,1009.12
2023-04-15T00:02:41.703Z,1009.12
2023-04-15T00:02:55.977Z,1009.12
2023-04-15T00:03:24.225Z,1009.12
2023-04-15T00:03:38.539Z,1009.12
2023-04-15T00:03:52.902Z,1009.11
2023-04-15T00:04:07.017Z,1009.11
2023-04-15T00:04:21.143Z,1009.11
2023-04-15T00:04:35.237Z,1009.10
2023-04-15T00:04:49.328Z,1009.10
2023-04-15T00:05:03.635Z,1009.10
2023-04-15T00:05:17.632Z,1009.10
2023-04-15T00:05:45.598Z,1009.09
2023-04-15T00:05:59.589Z,1009.09
2023-04-15T00:06:13.578Z,1009.09
2023-04-15T00:06:27.561Z,1009.09
2023-04-15T00:06:55.513Z,1009.08
2023-04-15T00:07:09.492Z,1009.08
2023-04-15T00:07:23.485Z,1009.08
2023-04-15T00:07:37.468Z,1009.08
2023-04-15T00:08:05.459Z,1009.08
2023-04-15T00:08:19.470Z,1009.08
2023-04-15T00:08:33.478Z,1009.07
2023-04-15T00:08:47.535Z,1009.08
2023-04-15T00:09:15.493Z,1009.07
2023-04-15T00:09:29.480Z,1009.07
2023-04-15T00:09:43.461Z,1009.07
2023-04-15T00:09:57.440Z,1009.07
2023-04-15T00:10:25.397Z,1009.07
2023-04-15T00:10:39.390Z,1009.07
2023-04-15T00:10:53.385Z,1009.07
2023-04-15T00:11:07.383Z,1009.07
2023-04-15T00:11:35.345Z,1009.07
2023-04-15T00:11:49.350Z,1009.07
2023-04-15T00:12:03.331Z,1009.06
2023-04-15T00:12:17.330Z,1009.07
2023-04-15T00:12:45.291Z,1009.07
2023-04-15T00:12:59.283Z,1009.07
2023-04-15T00:13:13.279Z,1009.07
2023-04-15T00:13:27.290Z,1009.07
2023-04-15T00:13:55.272Z,1009.07
2023-04-15T00:14:09.265Z,1009.08
2023-04-15T00:14:23.249Z,1009.08
2023-04-15T00:14:37.246Z,1009.08
2023-04-15T00:15:05.242Z,1009.08
2023-04-15T00:15:19.235Z,1009.09
2023-04-15T00:15:33.229Z,1009.09
2023-04-15T00:15:47.229Z,1009.09
2023-04-15T00:16:15.266Z,1009.09
2023-04-15T00:16:29.297Z,1009.10
2023-04-15T00:16:43.331Z,1009.10
2023-04-15T00:16:57.420Z,1009.10
2023-04-15T00:17:25.534Z,1009.10
2023-04-15T00:17:39.557Z,1009.10
2023-04-15T00:17:53.584Z,1009.10
2023-04-15T00:18:07.567Z,1009.10
2023-04-15T00:18:35.507Z,1009.11
2023-04-15T00:18:49.512Z,1009.11
2023-04-15T00:19:03.570Z,1009.11
2023-04-15T00:19:17.618Z,1009.11
2023-04-15T00:19:45.570Z,1009.12
2023-04-15T00:19:59.551Z,1009.12
2023-04-15T00:20:13.549Z,1009.12
2023-04-15T00:20:27.533Z,1009.12
2023-04-15T00:20:55.494Z,1009.12
2023-04-15T00:21:09.503Z,1009.12
2023-04-15T00:21:23.493Z,1009.12
2023-04-15T00:21:37.496Z,1009.12
2023-04-15T00:21:51.503Z,1009.12
2023-04-15T00:22:05.504Z,1009.12
2023-04-15T00:22:19.484Z,1009.11
2023-04-15T00:22:33.467Z,1009.11
2023-04-15T00:22:47.479Z,1009.12
2023-04-15T00:23:15.422Z,1009.11
2023-04-15T00:23:29.396Z,1009.11
2023-04-15T00:23:43.392Z,1009.11
2023-04-15T00:23:57.402Z,1009.11
2023-04-15T00:24:25.382Z,1009.11
2023-04-15T00:24:39.370Z,1009.11
2023-04-15T00:24:53.343Z,1009.11
2023-04-15T00:25:07.344Z,1009.11
2023-04-15T00:25:35.300Z,1009.11
2023-04-15T00:25:49.325Z,1009.12
2023-04-15T00:26:03.331Z,1009.11
2023-04-15T00:26:17.340Z,1009.12
2023-04-15T00:26:45.290Z,1009.12
2023-04-15T00:26:59.275Z,1009.12
2023-04-15T00:27:13.272Z,1009.12
2023-04-15T00:27:27.273Z,1009.13
2023-04-15T00:27:55.237Z,1009.13
2023-04-15T00:28:09.254Z,1009.12
2023-04-15T00:28:23.242Z,1009.12
2023-04-15T00:28:37.221Z,1009.12
2023-04-15T00:29:05.170Z,1009.12
2023-04-15T00:29:19.171Z,1009.12
2023-04-15T00:29:33.183Z,1009.12
2023-04-15T00:29:47.179Z,1009.12
2023-04-15T00:30:15.132Z,1009.12
2023-04-15T00:30:29.115Z,1009.11
2023-04-15T00:30:43.232Z,1009.11
2023-04-15T00:30:57.282Z,1009.11
2023-04-15T00:31:25.287Z,1009.09
2023-04-15T00:31:39.341Z,1009.10
2023-04-15T00:31:53.318Z,1009.09
2023-04-15T00:32:07.327Z,1009.09
2023-04-15T00:32:35.318Z,1009.08
2023-04-15T00:32:49.494Z,1009.07
2023-04-15T00:33:03.573Z,1009.07
2023-04-15T00:33:17.598Z,1009.06
2023-04-15T00:33:45.567Z,1009.05
2023-04-15T00:33:59.565Z,1009.05
2023-04-15T00:34:13.565Z,1009.04
2023-04-15T00:34:27.591Z,1009.03
2023-04-15T00:34:41.581Z,1009.03
2023-04-15T00:34:55.582Z,1009.03
2023-04-15T00:35:09.586Z,1009.02
2023-04-15T00:35:23.589Z,1009.01
2023-04-15T00:35:37.637Z,1009.01
2023-04-15T00:36:05.630Z,1009.00
2023-04-15T00:36:19.625Z,1008.99
2023-04-15T00:36:33.649Z,1008.99
2023-04-15T00:36:47.644Z,1008.99
2023-04-15T00:37:15.610Z,1008.97
2023-04-15T00:37:29.592Z,1008.97
2023-04-15T00:37:45.925Z,1008.96
2023-04-15T00:37:57.692Z,1008.96
2023-04-15T00:38:25.673Z,1008.95
2023-04-15T00:38:39.665Z,1008.94
2023-04-15T00:38:53.655Z,1008.94
2023-04-15T00:39:07.633Z,1008.94
2023-04-15T00:39:21.623Z,1008.93
2023-04-15T00:39:35.629Z,1008.93
2023-04-15T00:39:49.624Z,1008.92
2023-04-15T00:40:03.602Z,1008.92
2023-04-15T00:40:17.598Z,1008.91
2023-04-15T00:40:45.547Z,1008.90
2023-04-15T00:40:59.534Z,1008.89
2023-04-15T00:41:14.368Z,1008.89
2023-04-15T00:41:28.368Z,1008.89
2023-04-15T00:41:56.324Z,1008.88
2023-04-15T00:42:10.304Z,1008.88
2023-04-15T00:42:24.295Z,1008.88
2023-04-15T00:42:38.288Z,1008.88
2023-04-15T00:43:06.259Z,1008.88
2023-04-15T00:43:20.245Z,1008.88
2023-04-15T00:43:34.228Z,1008.88
2023-04-15T00:43:48.242Z,1008.88
2023-04-15T00:44:16.194Z,1008.88
2023-04-15T00:44:30.176Z,1008.88
2023-04-15T00:44:44.189Z,1008.88
2023-04-15T00:44:58.177Z,1008.88
2023-04-15T00:45:26.181Z,1008.88
2023-04-15T00:45:40.180Z,1008.88
2023-04-15T00:45:54.327Z,1008.87
2023-04-15T00:46:08.399Z,1008.88
2023-04-15T00:46:36.388Z,1008.88
2023-04-15T00:46:50.392Z,1008.88
2023-04-15T00:47:04.393Z,1008.88
2023-04-15T00:47:18.393Z,1008.88
2023-04-15T00:47:46.419Z,1008.88
2023-04-15T00:48:00.500Z,1008.89
2023-04-15T00:48:14.585Z,1008.88
2023-04-15T00:48:28.572Z,1008.88
2023-04-15T00:48:56.540Z,1008.88
2023-04-15T00:49:10.789Z,1008.89
2023-04-15T00:49:24.783Z,1008.89
2023-04-15T00:49:38.769Z,1008.90
2023-04-15T00:50:06.745Z,1008.90
2023-04-15T00:50:20.741Z,1008.91
2023-04-15T00:50:34.730Z,1008.91
2023-04-15T00:50:48.722Z,1008.91
2023-04-15T00:51:16.705Z,1008.91
2023-04-15T00:51:30.693Z,1008.91
2023-04-15T00:51:44.677Z,1008.92
2023-04-15T00:51:58.667Z,1008.92
2023-04-15T00:52:26.658Z,1008.93
2023-04-15T00:52:40.704Z,1008.93
2023-04-15T00:52:54.898Z,1008.93
2023-04-15T00:53:08.921Z,1008.93
2023-04-15T00:53:36.874Z,1008.93
2023-04-15T00:53:50.867Z,1008.93
2023-04-15T00:54:04.847Z,1008.93
2023-04-15T00:54:18.852Z,1008.93
2023-04-15T00:54:46.814Z,1008.93
2023-04-15T00:55:00.808Z,1008.93
2023-04-15T00:55:14.844Z,1008.93
2023-04-15T00:55:28.833Z,1008.93
2023-04-15T00:55:56.814Z,1008.93
2023-04-15T00:56:10.802Z,1008.93
2023-04-15T00:56:24.795Z,1008.93
2023-04-15T00:56:38.786Z,1008.93
2023-04-15T00:56:52.768Z,1008.93
2023-04-15T00:57:06.759Z,1008.93
2023-04-15T00:57:20.752Z,1008.92
2023-04-15T00:57:34.741Z,1008.92
2023-04-15T00:57:48.739Z,1008.93
2023-04-15T00:58:16.692Z,1008.92
2023-04-15T00:58:30.698Z,1008.92
2023-04-15T00:58:44.699Z,1008.92
2023-04-15T00:58:59.042Z,1008.92
2023-04-15T00:59:27.166Z,1008.91
2023-04-15T00:59:41.164Z,1008.91
2023-04-15T00:59:55.230Z,1008.91
2023-04-15T01:00:09.222Z,1008.91
2023-04-15T01:00:37.211Z,1008.90
2023-04-15T01:00:51.200Z,1008.90
2023-04-15T01:01:05.186Z,1008.90
2023-04-15T01:01:19.219Z,1008.90
2023-04-15T01:01:47.333Z,1008.89
2023-04-15T01:02:01.480Z,1008.89
2023-04-15T01:02:15.679Z,1008.89
2023-04-15T01:02:29.913Z,1008.89
2023-04-15T01:02:58.052Z,1008.89
2023-04-15T01:03:12.205Z,1008.89
2023-04-15T01:03:26.647Z,1008.89
2023-04-15T01:03:40.812Z,1008.89
2023-04-15T01:04:09.013Z,1008.88
2023-04-15T01:04:23.192Z,1008.89
2023-04-15T01:04:37.274Z,1008.88
2023-04-15T01:04:51.294Z,1008.88
2023-04-15T01:05:05.283Z,1008.88
2023-04-15T01:05:19.275Z,1008.88
2023-04-15T01:05:33.265Z,1008.88
2023-04-15T01:05:47.253Z,1008.87
2023-04-15T01:06:03.757Z,1008.87
2023-04-15T01:06:29.649Z,1008.87
2023-04-15T01:06:43.644Z,1008.87
2023-04-15T01:06:57.677Z,1008.87
2023-04-15T01:07:11.673Z,1008.87
2023-04-15T01:07:39.615Z,1008.86
2023-04-15T01:07:54.355Z,1008.86
2023-04-15T01:08:08.360Z,1008.85
2023-04-15T01:08:22.371Z,1008.85
2023-04-15T01:08:50.327Z,1008.86
2023-04-15T01:09:04.311Z,1008.86
2023-04-15T01:09:18.308Z,1008.86
2023-04-15T01:09:32.289Z,1008.85
2023-04-15T01:10:00.308Z,1008.86
2023-04-15T01:10:14.324Z,1008.87
2023-04-15T01:10:28.321Z,1008.86
2023-04-15T01:10:42.298Z,1008.86
2023-04-15T01:11:10.261Z,1008.86
2023-04-15T01:11:24.266Z,1008.87
2023-04-15T01:11:38.257Z,1008.88
2023-04-15T01:11:52.295Z,1008.87
2023-04-15T01:12:20.275Z,1008.87
2023-04-15T01:12:34.264Z,1008.88
2023-04-15T01:12:48.251Z,1008.89
2023-04-15T01:13:02.260Z,1008.89
2023-04-15T01:13:30.234Z,1008.90
2023-04-15T01:13:44.228Z,1008.90
2023-04-15T01:13:58.224Z,1008.91
2023-04-15T01:14:12.209Z,1008.91
2023-04-15T01:14:40.171Z,1008.92
2023-04-15T01:14:54.147Z,1008.93
2023-04-15T01:15:08.160Z,1008.93
2023-04-15T01:15:22.145Z,1008.93
2023-04-15T01:15:50.152Z,1008.93
2023-04-15T01:16:04.206Z,1008.93
2023-04-15T01:16:18.255Z,1008.93
2023-04-15T01:16:32.400Z,1008.93
2023-04-15T01:17:00.459Z,1008.94
2023-04-15T01:17:14.450Z,1008.94
2023-04-15T01:17:28.479Z,1008.94
2023-04-15T01:17:42.615Z,1008.95
2023-04-15T01:18:10.660Z,1008.95
2023-04-15T01:18:24.650Z,1008.95
2023-04-15T01:18:38.639Z,1008.94
2023-04-15T01:18:52.649Z,1008.94
2023-04-15T01:19:20.599Z,1008.94
2023-04-15T01:19:34.584Z,1008.93
2023-04-15T01:19:48.583Z,1008.93
2023-04-15T01:20:02.579Z,1008.93
2023-04-15T01:20:30.557Z,1008.93
2023-04-15T01:20:44.556Z,1008.93
2023-04-15T01:20:58.541Z,1008.93
2023-04-15T01:21:12.540Z,1008.93
2023-04-15T01:21:40.516Z,1008.92
2023-04-15T01:21:54.526Z,1008.92
2023-04-15T01:22:08.530Z,1008.93
2023-04-15T01:22:22.535Z,1008.93
2023-04-15T01:22:50.494Z,1008.92
2023-04-15T01:23:04.476Z,1008.92
2023-04-15T01:23:18.476Z,1008.92
2023-04-15T01:23:32.490Z,1008.92
2023-04-15T01:24:00.443Z,1008.92
2023-04-15T01:24:14.452Z,1008.92
2023-04-15T01:24:28.436Z,1008.91
2023-04-15T01:24:42.438Z,1008.91
2023-04-15T01:25:10.397Z,1008.91
2023-04-15T01:25:24.403Z,1008.90
2023-04-15T01:25:38.426Z,1008.90
2023-04-15T01:25:52.404Z,1008.90
2023-04-15T01:26:20.350Z,1008.89
2023-04-15T01:26:34.369Z,1008.89
2023-04-15T01:26:48.349Z,1008.89
2023-04-15T01:27:02.453Z,1008.88
2023-04-15T01:27:30.431Z,1008.88
2023-04-15T01:27:44.419Z,1008.88
2023-04-15T01:27:58.412Z,1008.88
2023-04-15T01:28:12.409Z,1008.88
2023-04-15T01:28:40.400Z,1008.87
2023-04-15T01:28:54.394Z,1008.88
2023-04-15T01:29:08.413Z,1008.88
2023-04-15T01:29:22.435Z,1008.88
2023-04-15T01:29:50.415Z,1008.88
2023-04-15T01:30:04.484Z,1008.87
2023-04-15T01:30:18.486Z,1008.87
2023-04-15T01:30:32.464Z,1008.87
2023-04-15T01:31:00.479Z,1008.87
2023-04-15T01:31:14.550Z,1008.87
2023-04-15T01:31:28.613Z,1008.87
2023-04-15T01:31:42.666Z,1008.87
2023-04-15T01:32:10.684Z,1008.87
2023-04-15T01:32:24.702Z,1008.87
2023-04-15T01:32:38.924Z,1008.86
2023-04-15T01:32:52.959Z,1008.86
2023-04-15T01:33:20.944Z,1008.86
2023-04-15T01:33:34.955Z,1008.86
2023-04-15T01:33:48.945Z,1008.85
2023-04-15T01:34:02.957Z,1008.85
2023-04-15T01:34:30.945Z,1008.86
2023-04-15T01:34:44.984Z,1008.85
2023-04-15T01:34:58.986Z,1008.84
2023-04-15T01:35:12.984Z,1008.83
2023-04-15T01:35:40.936Z,1008.84
2023-04-15T01:35:54.925Z,1008.84
2023-04-15T01:36:08.912Z,1008.84
2023-04-15T01:36:22.914Z,1008.84
2023-04-15T01:36:50.892Z,1008.83
2023-04-15T01:37:04.885Z,1008.83
2023-04-15T01:37:18.872Z,1008.82
2023-04-15T01:37:32.963Z,1008.83
2023-04-15T01:38:00.923Z,1008.82
2023-04-15T01:38:14.919Z,1008.82
2023-04-15T01:38:28.901Z,1008.81
2023-04-15T01:38:42.909Z,1008.82
2023-04-15T01:39:10.890Z,1008.81
2023-04-15T01:39:24.902Z,1008.81
2023-04-15T01:39:38.897Z,1008.80
2023-04-15T01:39:52.924Z,1008.80
2023-04-15T01:40:20.919Z,1008.80
2023-04-15T01:40:34.903Z,1008.80
2023-04-15T01:40:48.887Z,1008.79
2023-04-15T01:41:02.878Z,1008.80
2023-04-15T01:41:30.824Z,1008.80
2023-04-15T01:41:44.811Z,1008.81
2023-04-15T01:41:58.818Z,1008.80
2023-04-15T01:42:12.817Z,1008.80
2023-04-15T01:42:40.821Z,1008.81
2023-04-15T01:42:54.798Z,1008.82
2023-04-15T01:43:08.780Z,1008.81
2023-04-15T01:43:22.797Z,1008.81
2023-04-15T01:43:50.742Z,1008.81
2023-04-15T01:44:04.757Z,1008.80
2023-04-15T01:44:18.768Z,1008.80
2023-04-15T01:44:32.759Z,1008.80
2023-04-15T01:45:00.718Z,1008.79
2023-04-15T01:45:14.698Z,1008.80
2023-04-15T01:45:28.685Z,1008.80
2023-04-15T01:45:42.681Z,1008.79
2023-04-15T01:46:10.657Z,1008.78
2023-04-15T01:46:24.705Z,1008.76
2023-04-15T01:46:38.710Z,1008.77
2023-04-15T01:46:52.765Z,1008.77
2023-04-15T01:47:20.790Z,1008.76
2023-04-15T01:47:34.847Z,1008.75
2023-04-15T01:47:48.894Z,1008.76
2023-04-15T01:48:02.925Z,1008.75
2023-04-15T01:48:16.981Z,1008.76
2023-04-15T01:48:30.961Z,1008.75
2023-04-15T01:48:44.943Z,1008.75
2023-04-15T01:48:59.237Z,1008.74
2023-04-15T01:49:13.416Z,1008.74
2023-04-15T01:49:41.405Z,1008.72
2023-04-15T01:49:55.388Z,1008.72
2023-04-15T01:50:09.374Z,1008.73
2023-04-15T01:50:23.403Z,1008.71
2023-04-15T01:50:51.376Z,1008.71
2023-04-15T01:51:05.360Z,1008.72
2023-04-15T01:51:19.349Z,1008.72
2023-04-15T01:51:33.320Z,1008.72
2023-04-15T01:52:01.290Z,1008.70
2023-04-15T01:52:15.290Z,1008.70
2023-04-15T01:52:29.285Z,1008.71
2023-04-15T01:52:43.288Z,1008.72
2023-04-15T01:53:11.238Z,1008.71
2023-04-15T01:53:25.241Z,1008.69
2023-04-15T01:53:39.233Z,1008.71
2023-04-15T01:53:53.213Z,1008.69
2023-04-15T01:54:21.200Z,1008.70
2023-04-15T01:54:35.194Z,1008.70
2023-04-15T01:54:49.182Z,1008.70
2023-04-15T01:55:03.185Z,1008.70
2023-04-15T01:55:31.184Z,1008.70
2023-04-15T01:55:45.171Z,1008.68
2023-04-15T01:55:59.165Z,1008.69
2023-04-15T01:56:15.276Z,1008.70
2023-04-15T01:56:41.876Z,1008.69
2023-04-15T01:56:55.875Z,1008.69
2023-04-15T01:57:09.878Z,1008.69
2023-04-15T01:57:23.893Z,1008.70
2023-04-15T01:57:51.838Z,1008.68
2023-04-15T01:58:05.809Z,1008.69
2023-04-15T01:58:19.805Z,1008.69
2023-04-15T01:58:33.788Z,1008.69
2023-04-15T01:59:02.090Z,1008.69
2023-04-15T01:59:16.321Z,1008.70
2023-04-15T01:59:30.319Z,1008.69
2023-04-15T01:59:44.313Z,1008.68
2023-04-15T02:00:12.269Z,1008.68
2023-04-15T02:00:26.253Z,1008.68
2023-04-15T02:00:40.283Z,1008.68
2023-04-15T02:00:54.339Z,1008.67
2023-04-15T02:01:22.427Z,1008.68
2023-04-15T02:01:36.471Z,1008.67
2023-04-15T02:01:50.472Z,1008.67
2023-04-15T02:02:04.715Z,1008.67
2023-04-15T02:02:32.828Z,1008.66
2023-04-15T02:02:46.922Z,1008.67
2023-04-15T02:03:01.043Z,1008.66
2023-04-15T02:03:15.222Z,1008.67
2023-04-15T02:03:43.374Z,1008.67
2023-04-15T02:03:57.450Z,1008.67
2023-04-15T02:04:11.582Z,1008.67
2023-04-15T02:04:25.638Z,1008.66
2023-04-15T02:04:54.360Z,1008.66
2023-04-15T02:05:08.350Z,1008.66
2023-04-15T02:05:22.350Z,1008.66
2023-04-15T02:05:36.347Z,1008.66
2023-04-15T02:06:04.313Z,1008.67
2023-04-15T02:06:18.346Z,1008.67
2023-04-15T02:06:32.370Z,1008.68
2023-04-15T02:06:46.362Z,1008.67
2023-04-15T02:07:14.343Z,1008.66
2023-04-15T02:07:28.339Z,1008.66
2023-04-15T02:07:42.323Z,1008.67
2023-04-15T02:07:56.323Z,1008.67
2023-04-15T02:08:24.284Z,1008.67
2023-04-15T02:08:38.267Z,1008.68
2023-04-15T02:08:52.271Z,1008.67
2023-04-15T02:09:06.264Z,1008.68
2023-04-15T02:09:34.231Z,1008.68
2023-04-15T02:09:48.252Z,1008.67
2023-04-15T02:10:02.273Z,1008.67
2023-04-15T02:10:16.270Z,1008.67
2023-04-15T02:10:44.225Z,1008.67
2023-04-15T02:10:58.205Z,1008.68
2023-04-15T02:11:12.202Z,1008.66
2023-04-15T02:11:26.186Z,1008.67
2023-04-15T02:11:54.214Z,1008.68
2023-04-15T02:12:08.244Z,1008.67
2023-04-15T02:12:22.247Z,1008.67
2023-04-15T02:12:36.248Z,1008.68
2023-04-15T02:13:04.211Z,1008.66
2023-04-15T02:13:18.223Z,1008.67
2023-04-15T02:13:32.218Z,1008.66
2023-04-15T02:13:46.216Z,1008.66
2023-04-15T02:14:00.189Z,1008.66
2023-04-15T02:14:14.195Z,1008.67
2023-04-15T02:14:28.201Z,1008.66
2023-04-15T02:14:42.199Z,1008.65
2023-04-15T02:14:56.198Z,1008.65
2023-04-15T02:15:24.188Z,1008.66
2023-04-15T02:15:38.184Z,1008.65
2023-04-15T02:15:52.221Z,1008.63
2023-04-15T02:16:06.271Z,1008.64
2023-04-15T02:16:34.290Z,1008.64
2023-04-15T02:16:48.399Z,1008.63
2023-04-15T02:17:02.475Z,1008.63
2023-04-15T02:17:16.457Z,1008.62
2023-04-15T02:17:44.455Z,1008.62
2023-04-15T02:17:58.530Z,1008.62
2023-04-15T02:18:12.532Z,1008.62
2023-04-15T02:18:26.524Z,1008.62
2023-04-15T02:18:54.513Z,1008.63
2023-04-15T02:19:08.544Z,1008.62
2023-04-15T02:19:22.566Z,1008.62
2023-04-15T02:19:36.550Z,1008.61
2023-04-15T02:20:04.529Z,1008.61
2023-04-15T02:20:18.520Z,1008.61
2023-04-15T02:20:32.534Z,1008.61
2023-04-15T02:20:46.531Z,1008.61
2023-04-15T02:21:14.506Z,1008.63
2023-04-15T02:21:28.490Z,1008.62
2023-04-15T02:21:42.482Z,1008.62
2023-04-15T02:21:56.477Z,1008.62
2023-04-15T02:22:24.466Z,1008.63
2023-04-15T02:22:38.455Z,1008.64
2023-04-15T02:22:52.454Z,1008.63
2023-04-15T02:23:06.447Z,1008.64
2023-04-15T02:23:34.422Z,1008.64
2023-04-15T02:23:49.365Z,1008.64
2023-04-15T02:24:03.337Z,1008.64
2023-04-15T02:24:17.337Z,1008.65
2023-04-15T02:24:45.332Z,1008.66
2023-04-15T02:24:59.364Z,1008.68
2023-04-15T02:25:13.369Z,1008.68
2023-04-15T02:25:27.339Z,1008.66
2023-04-15T02:25:55.307Z,1008.68
2023-04-15T02:26:09.289Z,1008.69
2023-04-15T02:26:23.280Z,1008.68
2023-04-15T02:26:37.272Z,1008.68
2023-04-15T02:27:05.242Z,1008.69
2023-04-15T02:27:19.240Z,1008.70
2023-04-15T02:27:33.232Z,1008.70
2023-04-15T02:27:47.251Z,1008.71
2023-04-15T02:28:15.253Z,1008.70
2023-04-15T02:28:29.234Z,1008.69
2023-04-15T02:28:43.215Z,1008.70
2023-04-15T02:28:57.193Z,1008.70
2023-04-15T02:29:25.165Z,1008.70
2023-04-15T02:29:39.155Z,1008.70
2023-04-15T02:29:53.144Z,1008.69
2023-04-15T02:30:07.143Z,1008.71
2023-04-15T02:30:35.129Z,1008.70
2023-04-15T02:30:49.136Z,1008.71
2023-04-15T02:31:03.152Z,1008.71
2023-04-15T02:31:17.179Z,1008.71
2023-04-15T02:31:31.232Z,1008.71
2023-04-15T02:31:45.307Z,1008.70
2023-04-15T02:31:59.417Z,1008.70
2023-04-15T02:32:13.459Z,1008.71
2023-04-15T02:32:27.541Z,1008.71
2023-04-15T02:32:55.547Z,1008.70
2023-04-15T02:33:09.593Z,1008.71
2023-04-15T02:33:23.580Z,1008.71
2023-04-15T02:33:37.568Z,1008.71
2023-04-15T02:34:05.559Z,1008.71
2023-04-15T02:34:19.577Z,1008.71
2023-04-15T02:34:33.567Z,1008.71
2023-04-15T02:34:47.558Z,1008.71
2023-04-15T02:35:15.504Z,1008.71
2023-04-15T02:35:29.488Z,1008.73
2023-04-15T02:35:43.485Z,1008.72
2023-04-15T02:35:57.468Z,1008.71
2023-04-15T02:36:25.448Z,1008.74
2023-04-15T02:36:39.445Z,1008.73
2023-04-15T02:36:53.446Z,1008.74
2023-04-15T02:37:07.425Z,1008.74
2023-04-15T02:37:35.377Z,1008.73
2023-04-15T02:37:49.360Z,1008.74
2023-04-15T02:38:03.334Z,1008.73
2023-04-15T02:38:17.352Z,1008.74
2023-04-15T02:38:45.362Z,1008.73
2023-04-15T02:38:59.620Z,1008.74
2023-04-15T02:39:13.801Z,1008.74
2023-04-15T02:39:27.792Z,1008.74
2023-04-15T02:39:55.750Z,1008.74
2023-04-15T02:40:09.733Z,1008.74
2023-04-15T02:40:23.705Z,1008.74
2023-04-15T02:40:37.697Z,1008.76
2023-04-15T02:41:05.648Z,1008.74
2023-04-15T02:41:19.622Z,1008.74
2023-04-15T02:41:33.645Z,1008.75
2023-04-15T02:41:47.658Z,1008.76
2023-04-15T02:42:15.635Z,1008.76
2023-04-15T02:42:29.619Z,1008.77
2023-04-15T02:42:43.602Z,1008.76
2023-04-15T02:42:57.600Z,1008.77
2023-04-15T02:43:25.647Z,1008.77
2023-04-15T02:43:39.638Z,1008.76
2023-04-15T02:43:53.630Z,1008.78
2023-04-15T02:44:08.301Z,1008.77
2023-04-15T02:44:34.735Z,1008.78
2023-04-15T02:44:48.712Z,1008.79
2023-04-15T02:45:02.695Z,1008.80
2023-04-15T02:45:16.692Z,1008.80
2023-04-15T02:45:44.676Z,1008.80
2023-04-15T02:45:58.725Z,1008.80
2023-04-15T02:46:12.828Z,1008.80
2023-04-15T02:46:26.937Z,1008.81
2023-04-15T02:46:54.942Z,1008.82
2023-04-15T02:47:08.946Z,1008.81
2023-04-15T02:47:22.960Z,1008.81
2023-04-15T02:47:36.964Z,1008.82
2023-04-15T02:48:04.928Z,1008.83
2023-04-15T02:48:18.923Z,1008.84
2023-04-15T02:48:32.918Z,1008.84
2023-04-15T02:48:46.913Z,1008.84
2023-04-15T02:49:14.894Z,1008.84
2023-04-15T02:49:28.869Z,1008.85
2023-04-15T02:49:42.886Z,1008.86
2023-04-15T02:49:56.865Z,1008.87
2023-04-15T02:50:24.828Z,1008.85
2023-04-15T02:50:38.817Z,1008.86
2023-04-15T02:50:52.936Z,1008.85
2023-04-15T02:51:06.938Z,1008.85
2023-04-15T02:51:34.899Z,1008.85
2023-04-15T02:51:48.890Z,1008.86
2023-04-15T02:52:02.888Z,1008.87
2023-04-15T02:52:16.887Z,1008.88
2023-04-15T02:52:44.834Z,1008.85
2023-04-15T02:52:58.824Z,1008.86
2023-04-15T02:53:12.804Z,1008.86
2023-04-15T02:53:26.856Z,1008.87
2023-04-15T02:53:40.855Z,1008.87
2023-04-15T02:53:54.875Z,1008.88
2023-04-15T02:54:08.869Z,1008.86
2023-04-15T02:54:22.874Z,1008.87
2023-04-15T02:54:36.865Z,1008.86
2023-04-15T02:55:04.803Z,1008.88
2023-04-15T02:55:18.801Z,1008.86
2023-04-15T02:55:32.794Z,1008.87
2023-04-15T02:55:46.787Z,1008.87
2023-04-15T02:56:14.759Z,1008.87
2023-04-15T02:56:28.768Z,1008.87
2023-04-15T02:56:42.752Z,1008.86
2023-04-15T02:56:56.758Z,1008.87
2023-04-15T02:57:24.716Z,1008.88
2023-04-15T02:57:38.708Z,1008.87
2023-04-15T02:57:52.706Z,1008.86
2023-04-15T02:58:06.689Z,1008.87
2023-04-15T02:58:34.649Z,1008.88
2023-04-15T02:58:48.647Z,1008.88
2023-04-15T02:59:02.790Z,1008.87
2023-04-15T02:59:16.934Z,1008.87
2023-04-15T02:59:44.923Z,1008.87
2023-04-15T02:59:58.901Z,1008.86
2023-04-15T03:00:12.903Z,1008.87
2023-04-15T03:00:26.900Z,1008.86
2023-04-15T03:00:54.871Z,1008.85
2023-04-15T03:01:08.933Z,1008.86
2023-04-15T03:01:23.171Z,1008.85
2023-04-15T03:01:37.367Z,1008.85
2023-04-15T03:02:05.342Z,1008.86
2023-04-15T03:02:19.386Z,1008.85
2023-04-15T03:02:33.514Z,1008.85
2023-04-15T03:02:47.728Z,1008.85
2023-04-15T03:03:15.956Z,1008.83
2023-04-15T03:03:30.225Z,1008.83
2023-04-15T03:03:44.470Z,1008.84
2023-04-15T03:03:58.606Z,1008.81
2023-04-15T03:04:26.675Z,1008.83
2023-04-15T03:04:40.689Z,1008.83
2023-04-15T03:04:54.671Z,1008.82
2023-04-15T03:05:08.655Z,1008.82
2023-04-15T03:05:36.605Z,1008.82
2023-04-15T03:05:50.581Z,1008.83
2023-04-15T03:06:04.586Z,1008.81
2023-04-15T03:06:18.605Z,1008.82
2023-04-15T03:06:46.591Z,1008.82
2023-04-15T03:07:00.589Z,1008.83
2023-04-15T03:07:14.597Z,1008.81
2023-04-15T03:07:28.630Z,1008.81
2023-04-15T03:07:56.563Z,1008.81
2023-04-15T03:08:10.561Z,1008.81
2023-04-15T03:08:24.575Z,1008.83
2023-04-15T03:08:38.608Z,1008.83
2023-04-15T03:09:06.572Z,1008.82
2023-04-15T03:09:20.562Z,1008.82
2023-04-15T03:09:34.569Z,1008.80
2023-04-15T03:09:48.557Z,1008.83
2023-04-15T03:10:16.564Z,1008.80
2023-04-15T03:10:30.579Z,1008.80
2023-04-15T03:10:44.567Z,1008.79
2023-04-15T03:10:58.555Z,1008.80
2023-04-15T03:11:26.538Z,1008.79
2023-04-15T03:11:40.548Z,1008.80
2023-04-15T03:11:54.590Z,1008.80
2023-04-15T03:12:08.581Z,1008.81
2023-04-15T03:12:36.548Z,1008.80
2023-04-15T03:12:50.544Z,1008.80
2023-04-15T03:13:04.533Z,1008.80
2023-04-15T03:13:18.535Z,1008.79
2023-04-15T03:13:46.506Z,1008.79
2023-04-15T03:14:00.486Z,1008.81
2023-04-15T03:14:14.484Z,1008.81
2023-04-15T03:14:28.480Z,1008.79
2023-04-15T03:14:56.455Z,1008.79
2023-04-15T03:15:10.448Z,1008.80
2023-04-15T03:15:24.438Z,1008.79
2023-04-15T03:15:38.442Z,1008.78
2023-04-15T03:16:06.551Z,1008.79
2023-04-15T03:16:20.691Z,1008.80
2023-04-15T03:16:34.712Z,1008.80
2023-04-15T03:16:48.696Z,1008.81
2023-04-15T03:17:16.634Z,1008.78
2023-04-15T03:17:30.622Z,1008.80
2023-04-15T03:17:44.655Z,1008.79
2023-04-15T03:17:58.705Z,1008.79
2023-04-15T03:18:26.702Z,1008.79
2023-04-15T03:18:40.692Z,1008.78
2023-04-15T03:18:54.695Z,1008.80
2023-04-15T03:19:08.680Z,1008.78
2023-04-15T03:19:22.709Z,1008.78
2023-04-15T03:19:36.700Z,1008.78
2023-04-15T03:19:50.682Z,1008.77
2023-04-15T03:20:04.710Z,1008.78
2023-04-15T03:20:18.747Z,1008.78
2023-04-15T03:20:46.788Z,1008.78
2023-04-15T03:21:00.825Z,1008.76
2023-04-15T03:21:14.815Z,1008.77
2023-04-15T03:21:28.805Z,1008.76
2023-04-15T03:21:56.751Z,1008.77
2023-04-15T03:22:10.729Z,1008.76
2023-04-15T03:22:24.725Z,1008.77
2023-04-15T03:22:38.708Z,1008.77
2023-04-15T03:23:06.667Z,1008.77
2023-04-15T03:23:20.660Z,1008.76
2023-04-15T03:23:34.666Z,1008.76
2023-04-15T03:23:48.662Z,1008.77
2023-04-15T03:24:16.645Z,1008.77
2023-04-15T03:24:30.636Z,1008.77
2023-04-15T03:24:44.623Z,1008.78
2023-04-15T03:24:58.597Z,1008.76
2023-04-15T03:25:26.586Z,1008.77
2023-04-15T03:25:40.579Z,1008.78
2023-04-15T03:25:54.574Z,1008.77
2023-04-15T03:26:08.563Z,1008.78
2023-04-15T03:26:36.525Z,1008.78
2023-04-15T03:26:50.505Z,1008.78
2023-04-15T03:27:04.492Z,1008.78
2023-04-15T03:27:18.484Z,1008.78
2023-04-15T03:27:46.442Z,1008.78
2023-04-15T03:28:00.447Z,1008.79
2023-04-15T03:28:14.440Z,1008.79
2023-04-15T03:28:28.431Z,1008.78